Flight Briefing for CPX225

Departure Arrival
Ted Stevens Anchorage International Airport (PANC)
Click to view FAA NOTAMS
Los Angeles International Airport (KLAX)
Click to view FAA NOTAMS
Departure Time Arrival Time
0000 UTC 0425 UTC
Aircraft Distance
B767-300BDSF 2090nm
Departure METAR Arrival METAR
PANC 152039Z 30003KT 10SM FEW002 M11/M17 A3004 RMK AO2 FG BNK DSNT NE T11061167 KLAX 151953Z 24010KT 9SM FEW031 BKN070 BKN160 15/08 A3013 RMK AO2 SLP202 T01500083
Suggested Route
MDO B453 KURTT B453 KYLLE B453 BOXER ENI OAK TILLT HUULL HUULL2


View recent IFR Routes data
Notes



Charts and Procedures

Charts for PANC
No chart available
Charts for KLAX
No chart available

Ventusky Weather